• Join FlightAware (Why Join?)
  • Login
  • US Flag 
01:44PM EDT


 

Airport Tracker/Info


-or-


 

Live Flight TrackerFlight Track Log ✈ ASQ6159 ✈ 25-Apr-2013 ✈ KDAY - KORD

Flight Track Log - Related Links

Times and Time Zones

All times are in EDT time to prevent confusion due to time zone crossing. See the ASQ6159 flight status page for this flight to view local times or setup timezone preferences in your user account.

Time Position Orientation Groundspeed Altitude Reporting Facility
EDT Latitude Longitude Course Direction KTS MPH feet Rate Location/Type
09:11PM 39.8986 -84.2417 327° Northwest 160 184 1,800  Level Indianapolis Center
09:12PM 39.8933 -84.2906 262° West 181 208 4,100 2,220 Climbing Indianapolis Center
09:12PM 39.8897 -84.3303 263° West 200 230 4,800 1,020 Climbing Indianapolis Center
09:13PM 39.8892 -84.3631 269° West 193 222 5,200 2,280 Climbing Indianapolis Center
09:14PM 40.0880 -84.3879 323° Northwest  Level FlightAware Approximate
09:14PM 39.9325 -84.4239 313° West 245 282 8,300  Level Indianapolis Center
09:15PM 40.1409 -84.4517 327° Northwest  Level FlightAware Approximate
09:15PM 39.9956 -84.4681 332° Northwest 250 288 10,500  Level Indianapolis Center
09:16PM 40.2052 -84.5068 327° Northwest  Level FlightAware Approximate
09:16PM 40.0700 -84.5239 330° Northwest 291 335 11,400  Level Indianapolis Center
09:17PM 40.1561 -84.5842 332° Northwest 333 383 12,900 1,680 Climbing Indianapolis Center
09:18PM 40.2411 -84.6436 332° Northwest 341 392 14,900 1,620 Climbing Indianapolis Center
09:19PM 40.3236 -84.7039 331° Northwest 339 390 16,200 1,200 Climbing Indianapolis Center
09:20PM 40.4078 -84.7667 330° Northwest 343 395 17,400 960 Climbing Indianapolis Center
09:21PM 40.4939 -84.8286 331° Northwest 347 399 18,200 900 Climbing Indianapolis Center
09:22PM 40.5806 -84.8922 331° Northwest 352 405 19,300 1,200 Climbing Indianapolis Center
09:23PM 40.6361 -84.9328 331° Northwest 353 406 20,100 1,140 Climbing Chicago Center
09:24PM 40.7075 -85.0086 321° Northwest 360 414 21,200 900 Climbing Chicago Center
09:25PM 40.7664 -85.1128 307° West 353 406 22,000 360 Climbing Chicago Center
09:26PM 40.8394 -85.2431 307° West 362 417 22,000  Level Chicago Center
09:27PM 40.9022 -85.3528 307° West 370 426 22,000  Level Chicago Center
09:28PM 40.9644 -85.4628 307° West 373 429 22,000  Level Chicago Center
09:29PM 41.0264 -85.5725 307° West 371 427 22,000  Level Chicago Center
09:30PM 41.0872 -85.6836 306° West 370 426 22,000  Level Chicago Center
09:31PM 41.1469 -85.7978 305° West 375 432 22,000  Level Chicago Center
09:32PM 41.2072 -85.9125 305° West 377 434 22,000  Level Chicago Center
09:33PM 41.2783 -86.0511 304° West 376 433 22,000 -360 Level Chicago Center
09:34PM 41.3367 -86.1656 304° West 373 429 21,300 -1,020 Descending Chicago Center
09:35PM 41.3936 -86.2758 305° West 363 418 19,900 -1,500 Descending Chicago Center
09:36PM 41.4486 -86.3831 304° West 353 406 18,300 -1,620 Descending Chicago Center
09:37PM 41.5014 -86.4878 304° West 345 397 16,700 -1,800 Descending Chicago Center
09:38PM 41.5542 -86.5914 304° West 339 390 14,700 -2,040 Descending Chicago Center
09:39PM 41.6172 -86.7144 304° West 336 387 12,600 -1,260 Descending Chicago Center
09:40PM 41.6844 -86.7942 318° Northwest 343 395 12,100 -660 Descending Chicago Center
09:41PM 41.7758 -86.8097 353° North 337 388 11,300 -540 Descending Chicago Center
09:42PM 41.8631 -86.8317 349° North 328 377 11,100 -300 Descending Chicago Center
09:43PM 41.9147 -86.9231 307° West 320 368 10,700 -540 Descending Chicago Center
09:44PM 41.9372 -87.0364 285° West 317 365 10,100 -360 Descending Chicago Center
09:45PM 41.9636 -87.1708 285° West 313 360 10,000 -720 Descending Chicago Center
09:46PM 41.9703 -87.2639 276° West 260 299 8,700 -1,380 Descending Chicago Center
09:47PM 41.9686 -87.3586 269° West 256 295 7,200 -1,020 Descending Chicago Center
09:48PM 41.9667 -87.4333 268° West 252 290 7,000 -660 Descending Chicago TRACON
09:49PM 41.9667 -87.5167 270° West 248 285 6,200 -1,260 Descending Chicago TRACON
09:50PM 41.9667 -87.6167 270° West 230 265 4,700 -1,320 Descending Chicago TRACON
09:51PM 41.9667 -87.6833 270° West 201 231 3,600 -1,140 Descending Chicago TRACON